Terminal Aerodrome Forecast
Issued by NWS

Home | Current Version | Previous Version | Text Only | Print | Product List | Glossary On
Versions: 1 2 3 4 5 6 7 8 9 10 11 12 13 14 15 16 17 18 19 20 21 22 23 24 25 26 27 28 29 30 31 32 33 34 35 36 37
000
FTUS46 KOTX 290539
TAFSFF
TAF
KSFF 290539Z 2906/3006 23020G29KT P6SM -RA SCT030 OVC045
      TEMPO 2906/2908 BKN030
     FM290800 24013G21KT P6SM SCT025 BKN050
     FM291800 33011G16KT P6SM VCSH SCT025 BKN040
     FM300100 34010KT P6SM SCT050=

USA.gov is the U.S. government's official web portal to all federal, state and local government web resources and services.